Addiction — 9HA4571 — position and weather

sailwx.info

Track history (hours):
 
Tides and Currents Weather Stations Pressure Air Temp Water Temp Dewpoint Dewpoint Depression Visibility Wind Speed Wind Dir Waves Ship Positions

Addiction

Last reported at 2017-Oct-03 11:04 UTC. Time now 2017-Nov-20 17:23 UTC.
Position N 38°59' E 001°37'.
Warning: this ship's position is 48 days out of date.

Length 54 m; draft 3.3 m.

Type: Pleasure craft. MMSI: 248233000.

Date/timePositionNaut miles runAvg speedWind from/ knotsBaromVisibWave heightAir tempDewpointWater temp
2017-Oct-03 11:04N 38°59' E 001°37'113.3
2017-Oct-03 10:59N 38°58' E 001°36'713.1
2017-Oct-03 10:28N 38°55' E 001°29'2 4.5
2017-Oct-03 10:00N 38°55' E 001°26'0 0.0
2017-Oct-03 09:29N 38°55' E 001°26'0 0.0
2017-Oct-03 09:00N 38°55' E 001°26'0 0.0
2017-Oct-02 20:35N 38°55' E 001°26'0 0.0
2017-Oct-02 20:30N 38°55' E 001°26'0 0.0
2017-Oct-02 20:00N 38°55' E 001°26'0 0.0
2017-Oct-02 19:29N 38°55' E 001°26'3 5.9
2017-Oct-02 18:56N 38°51' E 001°26'5 0.7
2017-Oct-02 11:31N 38°51' E 001°19'0 8.8
2017-Oct-02 11:30N 38°51' E 001°19'5 9.4
2017-Oct-02 10:58N 38°50' E 001°25'510.9
2017-Oct-02 10:30N 38°55' E 001°26'0 0.4
2017-Oct-02 10:00N 38°55' E 001°26'0 0.0
2017-Oct-02 09:30N 38°55' E 001°26'0 0.0
2017-Oct-02 09:01N 38°55' E 001°26'0 0.0
2017-Oct-02 08:30N 38°55' E 001°26'0 0.0
2017-Oct-02 08:00N 38°55' E 001°26'0 0.0
2017-Oct-02 07:29N 38°55' E 001°26'0 0.0
2017-Oct-02 07:00N 38°55' E 001°26'0 0.0
2017-Oct-02 06:29N 38°55' E 001°26'0 0.0
2017-Oct-02 06:00N 38°55' E 001°26'0 0.0
2017-Oct-02 05:30N 38°55' E 001°26'0 0.0
2017-Oct-02 04:59N 38°55' E 001°26'0 0.0
2017-Oct-02 04:30N 38°55' E 001°26'0 0.0
2017-Oct-02 04:00N 38°55' E 001°26'0 0.0
2017-Oct-02 03:30N 38°55' E 001°26'0 0.0
2017-Oct-02 02:59N 38°55' E 001°26'0 0.0
2017-Oct-02 02:30N 38°55' E 001°26'0 0.0
2017-Oct-02 01:59N 38°55' E 001°26'0 0.0
2017-Oct-02 01:30N 38°55' E 001°26'0 0.0
2017-Oct-02 01:00N 38°55' E 001°26'0 0.0
2017-Oct-02 00:29N 38°55' E 001°26'0 0.0
2017-Oct-01 23:58N 38°55' E 001°26'0 0.0
2017-Oct-01 23:28N 38°55' E 001°26'0 0.0
2017-Oct-01 22:58N 38°55' E 001°26'0 0.0
2017-Oct-01 22:29N 38°55' E 001°26'0 0.0
2017-Oct-01 21:59N 38°55' E 001°26'0 0.0
2017-Oct-01 21:29N 38°55' E 001°26'0 0.0
2017-Oct-01 21:00N 38°55' E 001°26'0 0.0
2017-Oct-01 20:28N 38°55' E 001°26'0 0.0
2017-Oct-01 20:00N 38°55' E 001°26'0 0.0
2017-Oct-01 19:30N 38°55' E 001°26'1 1.2
2017-Oct-01 19:00N 38°54' E 001°27'5 0.5
2017-Oct-01 09:14N 38°55' E 001°33'313.1
2017-Oct-01 09:00N 38°57' E 001°36'8 0.3
2017-Sep-30 02:01N 38°55' E 001°26'0 0.0
2017-Sep-30 01:29N 38°55' E 001°26'0 0.0
2017-Sep-30 01:00N 38°55' E 001°26'0 0.0
2017-Sep-30 00:28N 38°55' E 001°26'0 0.0
2017-Sep-30 00:00N 38°55' E 001°26'0 0.0
2017-Sep-29 23:30N 38°55' E 001°26'0 0.0
2017-Sep-29 23:00N 38°55' E 001°26'0 0.0
2017-Sep-29 22:29N 38°55' E 001°26'0 0.0
2017-Sep-29 21:58N 38°55' E 001°26'0 0.0
2017-Sep-29 21:30N 38°55' E 001°26'0 0.0
2017-Sep-29 21:00N 38°55' E 001°26'0 0.0
2017-Sep-29 20:30N 38°55' E 001°26'0 0.0
2017-Sep-29 19:59N 38°55' E 001°26'0 0.0
2017-Sep-29 19:30N 38°55' E 001°26'0 0.0
2017-Sep-29 18:59N 38°55' E 001°26'0 0.0
2017-Sep-29 18:30N 38°55' E 001°26'0 0.0
2017-Sep-29 18:00N 38°55' E 001°26'0 0.0
2017-Sep-29 17:29N 38°55' E 001°26'0 0.0
2017-Sep-29 16:59N 38°55' E 001°26'3 6.3
2017-Sep-29 16:28N 38°51' E 001°26'4 1.0
2017-Sep-29 12:20N 38°47' E 001°24'411.4
2017-Sep-29 12:00N 38°51' E 001°26'4 7.5
2017-Sep-29 11:30N 38°55' E 001°26'0 0.0
2017-Sep-29 10:59N 38°55' E 001°26'0 0.0
2017-Sep-29 10:30N 38°55' E 001°26'0 0.0
2017-Sep-29 10:00N 38°55' E 001°26'0 0.0
2017-Sep-29 09:29N 38°55' E 001°26'0 0.0
2017-Sep-29 08:59N 38°55' E 001°26'0 0.0
2017-Sep-29 08:30N 38°55' E 001°26'0 0.0
2017-Sep-29 07:57N 38°55' E 001°26'0 0.0
2017-Sep-29 07:30N 38°55' E 001°26'0 0.0
2017-Sep-29 06:59N 38°55' E 001°26'0 0.0
2017-Sep-29 06:29N 38°55' E 001°26'0 0.0
2017-Sep-29 05:59N 38°55' E 001°26'0 0.0
2017-Sep-29 05:30N 38°55' E 001°26'0 0.0
2017-Sep-29 05:00N 38°55' E 001°26'0 0.0
2017-Sep-29 04:30N 38°55' E 001°26'0 0.0
2017-Sep-29 04:00N 38°55' E 001°26'0 0.0
2017-Sep-29 03:30N 38°55' E 001°26'0 0.0
2017-Sep-29 03:00N 38°55' E 001°26'0 0.0
2017-Sep-29 02:30N 38°55' E 001°26'0 0.0
2017-Sep-29 02:00N 38°55' E 001°26'0 0.0
2017-Sep-29 01:30N 38°55' E 001°26'0 0.0
2017-Sep-29 01:00N 38°55' E 001°26'0 0.0
2017-Sep-29 00:30N 38°55' E 001°26'0 0.0
2017-Sep-28 23:59N 38°55' E 001°26'0 0.0
2017-Sep-28 23:29N 38°55' E 001°26'0 0.0
2017-Sep-28 23:00N 38°55' E 001°26'0 0.0
2017-Sep-28 22:29N 38°55' E 001°26'0 0.0
2017-Sep-28 21:59N 38°55' E 001°26'0 0.0
2017-Sep-28 21:30N 38°55' E 001°26'0 0.0
2017-Sep-28 20:58N 38°55' E 001°26'0 0.0
2017-Sep-28 20:29N 38°55' E 001°26'0 0.0
2017-Sep-28 19:57N 38°55' E 001°26'0 0.0
2017-Sep-28 19:29N 38°55' E 001°26'0 0.0
2017-Sep-28 18:59N 38°55' E 001°26'0 0.0
2017-Sep-28 18:29N 38°55' E 001°26'0 0.0
2017-Sep-28 17:59N 38°55' E 001°26'0 0.0
2017-Sep-28 17:29N 38°55' E 001°26'0 0.0
2017-Sep-28 16:59N 38°55' E 001°26'0 0.0
2017-Sep-28 16:29N 38°55' E 001°26'0 0.0
2017-Sep-28 16:01N 38°55' E 001°26'0 0.0
2017-Sep-28 15:30N 38°55' E 001°26'0 0.0
2017-Sep-28 14:59N 38°55' E 001°26'0 0.0
2017-Sep-28 14:29N 38°55' E 001°26'0 0.0
2017-Sep-28 13:59N 38°55' E 001°26'0 0.0
2017-Sep-28 13:30N 38°55' E 001°26'4 6.9
2017-Sep-28 12:58N 38°55' E 001°31'611.9
2017-Sep-28 12:30N 38°58' E 001°37'3111.9
2017-Sep-28 09:53N 39°18' E 002°09'411.8
2017-Sep-28 09:30N 39°20' E 002°13'612.2
2017-Sep-28 09:00N 39°24' E 002°20'612.0
2017-Sep-28 08:30N 39°28' E 002°26'  
Track history (hours):
 
Tides and Currents Weather Stations Pressure Air Temp Water Temp Dewpoint Dewpoint Depression Visibility Wind Speed Wind Dir Waves Ship Positions

Addiction

Last reported at 2017-Oct-03 11:04 UTC. Time now 2017-Nov-20 17:23 UTC.
Position N 38°59' E 001°37'.
Warning: this ship's position is 48 days out of date.

Length 54 m; draft 3.3 m.

Type: Pleasure craft. MMSI: 248233000.

Date/timePositionNaut miles runAvg speedWind from/ knotsBaromVisibWave heightAir tempDewpointWater temp
2017-Oct-03 11:04N 38°59' E 001°37'113.3
2017-Oct-03 10:59N 38°58' E 001°36'713.1
2017-Oct-03 10:28N 38°55' E 001°29'2 4.5
2017-Oct-03 10:00N 38°55' E 001°26'0 0.0
2017-Oct-03 09:29N 38°55' E 001°26'0 0.0
2017-Oct-03 09:00N 38°55' E 001°26'0 0.0
2017-Oct-02 20:35N 38°55' E 001°26'0 0.0
2017-Oct-02 20:30N 38°55' E 001°26'0 0.0
2017-Oct-02 20:00N 38°55' E 001°26'0 0.0
2017-Oct-02 19:29N 38°55' E 001°26'3 5.9
2017-Oct-02 18:56N 38°51' E 001°26'5 0.7
2017-Oct-02 11:31N 38°51' E 001°19'0 8.8
2017-Oct-02 11:30N 38°51' E 001°19'5 9.4
2017-Oct-02 10:58N 38°50' E 001°25'510.9
2017-Oct-02 10:30N 38°55' E 001°26'0 0.4
2017-Oct-02 10:00N 38°55' E 001°26'0 0.0
2017-Oct-02 09:30N 38°55' E 001°26'0 0.0
2017-Oct-02 09:01N 38°55' E 001°26'0 0.0
2017-Oct-02 08:30N 38°55' E 001°26'0 0.0
2017-Oct-02 08:00N 38°55' E 001°26'0 0.0
2017-Oct-02 07:29N 38°55' E 001°26'0 0.0
2017-Oct-02 07:00N 38°55' E 001°26'0 0.0
2017-Oct-02 06:29N 38°55' E 001°26'0 0.0
2017-Oct-02 06:00N 38°55' E 001°26'0 0.0
2017-Oct-02 05:30N 38°55' E 001°26'0 0.0
2017-Oct-02 04:59N 38°55' E 001°26'0 0.0
2017-Oct-02 04:30N 38°55' E 001°26'0 0.0
2017-Oct-02 04:00N 38°55' E 001°26'0 0.0
2017-Oct-02 03:30N 38°55' E 001°26'0 0.0
2017-Oct-02 02:59N 38°55' E 001°26'0 0.0
2017-Oct-02 02:30N 38°55' E 001°26'0 0.0
2017-Oct-02 01:59N 38°55' E 001°26'0 0.0
2017-Oct-02 01:30N 38°55' E 001°26'0 0.0
2017-Oct-02 01:00N 38°55' E 001°26'0 0.0
2017-Oct-02 00:29N 38°55' E 001°26'0 0.0
2017-Oct-01 23:58N 38°55' E 001°26'0 0.0
2017-Oct-01 23:28N 38°55' E 001°26'0 0.0
2017-Oct-01 22:58N 38°55' E 001°26'0 0.0
2017-Oct-01 22:29N 38°55' E 001°26'0 0.0
2017-Oct-01 21:59N 38°55' E 001°26'0 0.0
2017-Oct-01 21:29N 38°55' E 001°26'0 0.0
2017-Oct-01 21:00N 38°55' E 001°26'0 0.0
2017-Oct-01 20:28N 38°55' E 001°26'0 0.0
2017-Oct-01 20:00N 38°55' E 001°26'0 0.0
2017-Oct-01 19:30N 38°55' E 001°26'1 1.2
2017-Oct-01 19:00N 38°54' E 001°27'5 0.5
2017-Oct-01 09:14N 38°55' E 001°33'313.1
2017-Oct-01 09:00N 38°57' E 001°36'8 0.3
2017-Sep-30 02:01N 38°55' E 001°26'0 0.0
2017-Sep-30 01:29N 38°55' E 001°26'0 0.0
2017-Sep-30 01:00N 38°55' E 001°26'0 0.0
2017-Sep-30 00:28N 38°55' E 001°26'0 0.0
2017-Sep-30 00:00N 38°55' E 001°26'0 0.0
2017-Sep-29 23:30N 38°55' E 001°26'0 0.0
2017-Sep-29 23:00N 38°55' E 001°26'0 0.0
2017-Sep-29 22:29N 38°55' E 001°26'0 0.0
2017-Sep-29 21:58N 38°55' E 001°26'0 0.0
2017-Sep-29 21:30N 38°55' E 001°26'0 0.0
2017-Sep-29 21:00N 38°55' E 001°26'0 0.0
2017-Sep-29 20:30N 38°55' E 001°26'0 0.0
2017-Sep-29 19:59N 38°55' E 001°26'0 0.0
2017-Sep-29 19:30N 38°55' E 001°26'0 0.0
2017-Sep-29 18:59N 38°55' E 001°26'0 0.0
2017-Sep-29 18:30N 38°55' E 001°26'0 0.0
2017-Sep-29 18:00N 38°55' E 001°26'0 0.0
2017-Sep-29 17:29N 38°55' E 001°26'0 0.0
2017-Sep-29 16:59N 38°55' E 001°26'3 6.3
2017-Sep-29 16:28N 38°51' E 001°26'4 1.0
2017-Sep-29 12:20N 38°47' E 001°24'411.4
2017-Sep-29 12:00N 38°51' E 001°26'4 7.5
2017-Sep-29 11:30N 38°55' E 001°26'0 0.0
2017-Sep-29 10:59N 38°55' E 001°26'0 0.0
2017-Sep-29 10:30N 38°55' E 001°26'0 0.0
2017-Sep-29 10:00N 38°55' E 001°26'0 0.0
2017-Sep-29 09:29N 38°55' E 001°26'0 0.0
2017-Sep-29 08:59N 38°55' E 001°26'0 0.0
2017-Sep-29 08:30N 38°55' E 001°26'0 0.0
2017-Sep-29 07:57N 38°55' E 001°26'0 0.0
2017-Sep-29 07:30N 38°55' E 001°26'0 0.0
2017-Sep-29 06:59N 38°55' E 001°26'0 0.0
2017-Sep-29 06:29N 38°55' E 001°26'0 0.0
2017-Sep-29 05:59N 38°55' E 001°26'0 0.0
2017-Sep-29 05:30N 38°55' E 001°26'0 0.0
2017-Sep-29 05:00N 38°55' E 001°26'0 0.0
2017-Sep-29 04:30N 38°55' E 001°26'0 0.0
2017-Sep-29 04:00N 38°55' E 001°26'0 0.0
2017-Sep-29 03:30N 38°55' E 001°26'0 0.0
2017-Sep-29 03:00N 38°55' E 001°26'0 0.0
2017-Sep-29 02:30N 38°55' E 001°26'0 0.0
2017-Sep-29 02:00N 38°55' E 001°26'0 0.0
2017-Sep-29 01:30N 38°55' E 001°26'0 0.0
2017-Sep-29 01:00N 38°55' E 001°26'0 0.0
2017-Sep-29 00:30N 38°55' E 001°26'0 0.0
2017-Sep-28 23:59N 38°55' E 001°26'0 0.0
2017-Sep-28 23:29N 38°55' E 001°26'0 0.0
2017-Sep-28 23:00N 38°55' E 001°26'0 0.0
2017-Sep-28 22:29N 38°55' E 001°26'0 0.0
2017-Sep-28 21:59N 38°55' E 001°26'0 0.0
2017-Sep-28 21:30N 38°55' E 001°26'0 0.0
2017-Sep-28 20:58N 38°55' E 001°26'0 0.0
2017-Sep-28 20:29N 38°55' E 001°26'0 0.0
2017-Sep-28 19:57N 38°55' E 001°26'0 0.0
2017-Sep-28 19:29N 38°55' E 001°26'0 0.0
2017-Sep-28 18:59N 38°55' E 001°26'0 0.0
2017-Sep-28 18:29N 38°55' E 001°26'0 0.0
2017-Sep-28 17:59N 38°55' E 001°26'0 0.0
2017-Sep-28 17:29N 38°55' E 001°26'0 0.0
2017-Sep-28 16:59N 38°55' E 001°26'0 0.0
2017-Sep-28 16:29N 38°55' E 001°26'0 0.0
2017-Sep-28 16:01N 38°55' E 001°26'0 0.0
2017-Sep-28 15:30N 38°55' E 001°26'0 0.0
2017-Sep-28 14:59N 38°55' E 001°26'0 0.0
2017-Sep-28 14:29N 38°55' E 001°26'0 0.0
2017-Sep-28 13:59N 38°55' E 001°26'0 0.0
2017-Sep-28 13:30N 38°55' E 001°26'4 6.9
2017-Sep-28 12:58N 38°55' E 001°31'611.9
2017-Sep-28 12:30N 38°58' E 001°37'3111.9
2017-Sep-28 09:53N 39°18' E 002°09'411.8
2017-Sep-28 09:30N 39°20' E 002°13'612.2
2017-Sep-28 09:00N 39°24' E 002°20'612.0
2017-Sep-28 08:30N 39°28' E 002°26'  

Dump ship's entire track history